sensor_id;sensor_type;location;lat;lon;timestamp;temperature;humidity
23385;DHT22;11865;45.394;10.978;2024-01-30T00:00:39;-0.70;99.90
23385;DHT22;11865;45.394;10.978;2024-01-30T00:03:07;-0.70;99.90
23385;DHT22;11865;45.394;10.978;2024-01-30T00:05:34;-0.70;99.90
23385;DHT22;11865;45.394;10.978;2024-01-30T00:08:02;-0.70;99.90
23385;DHT22;11865;45.394;10.978;2024-01-30T00:10:30;-0.70;99.90
23385;DHT22;11865;45.394;10.978;2024-01-30T00:12:58;-0.70;99.90
23385;DHT22;11865;45.394;10.978;2024-01-30T00:15:25;-0.60;99.90
23385;DHT22;11865;45.394;10.978;2024-01-30T00:17:53;-0.70;99.90
23385;DHT22;11865;45.394;10.978;2024-01-30T00:20:20;-0.80;99.90
23385;DHT22;11865;45.394;10.978;2024-01-30T00:22:48;-0.70;99.90
23385;DHT22;11865;45.394;10.978;2024-01-30T00:25:16;-0.60;99.90
23385;DHT22;11865;45.394;10.978;2024-01-30T00:27:44;-0.60;99.90
23385;DHT22;11865;45.394;10.978;2024-01-30T00:30:12;-0.60;99.90
23385;DHT22;11865;45.394;10.978;2024-01-30T00:32:39;-0.60;99.90
23385;DHT22;11865;45.394;10.978;2024-01-30T00:35:07;-0.60;99.90
23385;DHT22;11865;45.394;10.978;2024-01-30T00:37:37;-0.60;99.90
23385;DHT22;11865;45.394;10.978;2024-01-30T00:40:05;-0.60;99.90
23385;DHT22;11865;45.394;10.978;2024-01-30T00:42:33;-0.60;99.90
23385;DHT22;11865;45.394;10.978;2024-01-30T00:45:01;-0.40;99.90
23385;DHT22;11865;45.394;10.978;2024-01-30T00:47:29;-0.50;99.90
23385;DHT22;11865;45.394;10.978;2024-01-30T00:49:56;-0.40;99.90
23385;DHT22;11865;45.394;10.978;2024-01-30T00:52:24;-0.40;99.90
23385;DHT22;11865;45.394;10.978;2024-01-30T00:54:52;-0.40;99.90
23385;DHT22;11865;45.394;10.978;2024-01-30T00:57:19;-0.30;99.90
23385;DHT22;11865;45.394;10.978;2024-01-30T00:59:47;-0.20;99.90
23385;DHT22;11865;45.394;10.978;2024-01-30T01:02:14;-0.10;99.90
23385;DHT22;11865;45.394;10.978;2024-01-30T01:04:44;-0.20;99.90
23385;DHT22;11865;45.394;10.978;2024-01-30T01:07:12;-0.10;99.90
23385;DHT22;11865;45.394;10.978;2024-01-30T01:09:40;-0.10;99.90
23385;DHT22;11865;45.394;10.978;2024-01-30T01:12:07;-0.20;99.90
23385;DHT22;11865;45.394;10.978;2024-01-30T01:14:35;-0.10;99.90
23385;DHT22;11865;45.394;10.978;2024-01-30T01:17:03;0.00;99.90
23385;DHT22;11865;45.394;10.978;2024-01-30T01:19:31;-0.10;99.90
23385;DHT22;11865;45.394;10.978;2024-01-30T01:21:59;-0.10;99.90
23385;DHT22;11865;45.394;10.978;2024-01-30T01:24:26;-0.10;99.90
23385;DHT22;11865;45.394;10.978;2024-01-30T01:26:54;-0.20;99.90
23385;DHT22;11865;45.394;10.978;2024-01-30T01:29:21;-0.20;99.90
23385;DHT22;11865;45.394;10.978;2024-01-30T01:31:56;-0.30;99.90
23385;DHT22;11865;45.394;10.978;2024-01-30T01:34:24;-0.30;99.90
23385;DHT22;11865;45.394;10.978;2024-01-30T01:36:56;-0.20;99.90
23385;DHT22;11865;45.394;10.978;2024-01-30T01:39:24;-0.20;99.90
23385;DHT22;11865;45.394;10.978;2024-01-30T01:41:52;-0.20;99.90
23385;DHT22;11865;45.394;10.978;2024-01-30T01:44:19;-0.20;99.90
23385;DHT22;11865;45.394;10.978;2024-01-30T01:46:47;-0.30;99.90
23385;DHT22;11865;45.394;10.978;2024-01-30T01:49:15;-0.30;99.90
23385;DHT22;11865;45.394;10.978;2024-01-30T01:51:44;-0.30;99.90
23385;DHT22;11865;45.394;10.978;2024-01-30T01:54:14;-0.40;99.90
23385;DHT22;11865;45.394;10.978;2024-01-30T01:56:43;-0.60;99.90
23385;DHT22;11865;45.394;10.978;2024-01-30T01:59:11;-0.70;99.90
23385;DHT22;11865;45.394;10.978;2024-01-30T02:01:39;-0.70;99.90
23385;DHT22;11865;45.394;10.978;2024-01-30T02:04:09;-0.60;99.90
23385;DHT22;11865;45.394;10.978;2024-01-30T02:06:37;-0.50;99.90
23385;DHT22;11865;45.394;10.978;2024-01-30T02:09:06;-0.40;99.90
23385;DHT22;11865;45.394;10.978;2024-01-30T02:11:33;-0.40;99.90
23385;DHT22;11865;45.394;10.978;2024-01-30T02:14:04;-0.40;99.90
23385;DHT22;11865;45.394;10.978;2024-01-30T02:16:32;-0.30;99.90
23385;DHT22;11865;45.394;10.978;2024-01-30T02:19:00;-0.40;99.90
23385;DHT22;11865;45.394;10.978;2024-01-30T02:21:28;-0.30;99.90
23385;DHT22;11865;45.394;10.978;2024-01-30T02:23:55;-0.40;99.90
23385;DHT22;11865;45.394;10.978;2024-01-30T02:26:23;-0.40;99.90
23385;DHT22;11865;45.394;10.978;2024-01-30T02:28:51;-0.40;99.90
23385;DHT22;11865;45.394;10.978;2024-01-30T02:31:19;-0.60;99.90
23385;DHT22;11865;45.394;10.978;2024-01-30T02:33:47;-0.60;99.90
23385;DHT22;11865;45.394;10.978;2024-01-30T02:36:15;-0.50;99.90
23385;DHT22;11865;45.394;10.978;2024-01-30T02:38:43;-0.50;99.90
23385;DHT22;11865;45.394;10.978;2024-01-30T02:41:10;-0.40;99.90
23385;DHT22;11865;45.394;10.978;2024-01-30T02:43:38;-0.30;99.90
23385;DHT22;11865;45.394;10.978;2024-01-30T02:46:05;-0.30;99.90
23385;DHT22;11865;45.394;10.978;2024-01-30T02:48:33;-0.30;99.90
23385;DHT22;11865;45.394;10.978;2024-01-30T02:51:01;-0.20;99.90
23385;DHT22;11865;45.394;10.978;2024-01-30T02:53:28;-0.20;99.90
23385;DHT22;11865;45.394;10.978;2024-01-30T02:55:56;-0.30;99.90
23385;DHT22;11865;45.394;10.978;2024-01-30T02:58:23;-0.40;99.90
23385;DHT22;11865;45.394;10.978;2024-01-30T03:00:51;-0.50;99.90
23385;DHT22;11865;45.394;10.978;2024-01-30T03:03:19;-0.50;99.90
23385;DHT22;11865;45.394;10.978;2024-01-30T03:05:46;-0.80;99.90
23385;DHT22;11865;45.394;10.978;2024-01-30T03:08:14;-0.80;99.90
23385;DHT22;11865;45.394;10.978;2024-01-30T03:10:42;-0.80;99.90
23385;DHT22;11865;45.394;10.978;2024-01-30T03:13:09;-0.80;99.90
23385;DHT22;11865;45.394;10.978;2024-01-30T03:15:37;-0.80;99.90
23385;DHT22;11865;45.394;10.978;2024-01-30T03:18:05;-0.70;99.90
23385;DHT22;11865;45.394;10.978;2024-01-30T03:20:32;-0.60;99.90
23385;DHT22;11865;45.394;10.978;2024-01-30T03:23:00;-0.60;99.90
23385;DHT22;11865;45.394;10.978;2024-01-30T03:25:28;-0.80;99.90
23385;DHT22;11865;45.394;10.978;2024-01-30T03:27:56;-0.80;99.90
23385;DHT22;11865;45.394;10.978;2024-01-30T03:30:23;-0.90;99.90
23385;DHT22;11865;45.394;10.978;2024-01-30T03:32:51;-1.10;99.90
23385;DHT22;11865;45.394;10.978;2024-01-30T03:35:19;-1.00;99.90
23385;DHT22;11865;45.394;10.978;2024-01-30T03:37:46;-0.80;99.90
23385;DHT22;11865;45.394;10.978;2024-01-30T03:40:14;-0.90;99.90
23385;DHT22;11865;45.394;10.978;2024-01-30T03:42:42;-0.90;99.90
23385;DHT22;11865;45.394;10.978;2024-01-30T03:45:10;-0.90;99.90
23385;DHT22;11865;45.394;10.978;2024-01-30T03:47:37;-1.10;99.90
23385;DHT22;11865;45.394;10.978;2024-01-30T03:50:05;-1.20;99.90
23385;DHT22;11865;45.394;10.978;2024-01-30T03:52:33;-1.10;99.90
23385;DHT22;11865;45.394;10.978;2024-01-30T03:55:00;-1.30;99.90
23385;DHT22;11865;45.394;10.978;2024-01-30T03:57:28;-1.30;99.90
23385;DHT22;11865;45.394;10.978;2024-01-30T03:59:56;-1.20;99.90
23385;DHT22;11865;45.394;10.978;2024-01-30T04:02:27;-1.20;99.90
23385;DHT22;11865;45.394;10.978;2024-01-30T04:04:54;-1.20;99.90
23385;DHT22;11865;45.394;10.978;2024-01-30T04:07:22;-1.10;99.90
23385;DHT22;11865;45.394;10.978;2024-01-30T04:09:51;-1.20;99.90
23385;DHT22;11865;45.394;10.978;2024-01-30T04:12:18;-1.30;99.90
23385;DHT22;11865;45.394;10.978;2024-01-30T04:14:46;-1.50;99.90
23385;DHT22;11865;45.394;10.978;2024-01-30T04:17:13;-1.40;99.90
23385;DHT22;11865;45.394;10.978;2024-01-30T04:19:41;-1.50;99.90
23385;DHT22;11865;45.394;10.978;2024-01-30T04:22:08;-1.30;99.90
23385;DHT22;11865;45.394;10.978;2024-01-30T04:24:36;-1.40;99.90
23385;DHT22;11865;45.394;10.978;2024-01-30T04:27:04;-1.40;99.90
23385;DHT22;11865;45.394;10.978;2024-01-30T04:29:31;-1.30;99.90
23385;DHT22;11865;45.394;10.978;2024-01-30T04:32:00;-1.20;99.90
23385;DHT22;11865;45.394;10.978;2024-01-30T04:34:27;-1.40;99.90
23385;DHT22;11865;45.394;10.978;2024-01-30T04:36:55;-1.10;99.90
23385;DHT22;11865;45.394;10.978;2024-01-30T04:39:23;-1.30;99.90
23385;DHT22;11865;45.394;10.978;2024-01-30T04:41:50;-1.30;99.90
23385;DHT22;11865;45.394;10.978;2024-01-30T04:44:18;-1.30;99.90
23385;DHT22;11865;45.394;10.978;2024-01-30T04:46:46;-1.50;99.90
23385;DHT22;11865;45.394;10.978;2024-01-30T04:49:13;-1.40;99.90
23385;DHT22;11865;45.394;10.978;2024-01-30T04:51:41;-1.20;99.90
23385;DHT22;11865;45.394;10.978;2024-01-30T04:54:09;-1.20;99.90
23385;DHT22;11865;45.394;10.978;2024-01-30T04:56:36;-1.20;99.90
23385;DHT22;11865;45.394;10.978;2024-01-30T04:59:04;-1.20;99.90
23385;DHT22;11865;45.394;10.978;2024-01-30T05:01:32;-1.30;99.90
23385;DHT22;11865;45.394;10.978;2024-01-30T05:04:00;-1.20;99.90
23385;DHT22;11865;45.394;10.978;2024-01-30T05:06:28;-1.30;99.90
23385;DHT22;11865;45.394;10.978;2024-01-30T05:08:56;-1.30;99.90
23385;DHT22;11865;45.394;10.978;2024-01-30T05:11:23;-1.30;99.90
23385;DHT22;11865;45.394;10.978;2024-01-30T05:13:51;-1.40;99.90
23385;DHT22;11865;45.394;10.978;2024-01-30T05:16:18;-1.30;99.90
23385;DHT22;11865;45.394;10.978;2024-01-30T05:18:46;-1.50;99.90
23385;DHT22;11865;45.394;10.978;2024-01-30T05:21:14;-1.40;99.90
23385;DHT22;11865;45.394;10.978;2024-01-30T05:23:42;-1.40;99.90
23385;DHT22;11865;45.394;10.978;2024-01-30T05:26:09;-1.40;99.90
23385;DHT22;11865;45.394;10.978;2024-01-30T05:28:37;-1.50;99.90
23385;DHT22;11865;45.394;10.978;2024-01-30T05:31:05;-1.50;99.90
23385;DHT22;11865;45.394;10.978;2024-01-30T05:33:32;-1.50;99.90
23385;DHT22;11865;45.394;10.978;2024-01-30T05:36:00;-1.60;99.90
23385;DHT22;11865;45.394;10.978;2024-01-30T05:38:29;-1.40;99.90
23385;DHT22;11865;45.394;10.978;2024-01-30T05:40:57;-1.50;99.90
23385;DHT22;11865;45.394;10.978;2024-01-30T05:43:25;-1.50;99.90
23385;DHT22;11865;45.394;10.978;2024-01-30T05:45:54;-1.40;99.90
23385;DHT22;11865;45.394;10.978;2024-01-30T05:48:21;-1.40;99.90
23385;DHT22;11865;45.394;10.978;2024-01-30T05:50:49;-1.50;99.90
23385;DHT22;11865;45.394;10.978;2024-01-30T05:53:17;-1.40;99.90
23385;DHT22;11865;45.394;10.978;2024-01-30T05:55:44;-1.50;99.90
23385;DHT22;11865;45.394;10.978;2024-01-30T05:58:12;-1.50;99.90
23385;DHT22;11865;45.394;10.978;2024-01-30T06:00:40;-1.40;99.90
23385;DHT22;11865;45.394;10.978;2024-01-30T06:03:07;-1.40;99.90
23385;DHT22;11865;45.394;10.978;2024-01-30T06:05:35;-1.40;99.90
23385;DHT22;11865;45.394;10.978;2024-01-30T06:08:03;-1.50;99.90
23385;DHT22;11865;45.394;10.978;2024-01-30T06:10:31;-1.40;99.90
23385;DHT22;11865;45.394;10.978;2024-01-30T06:12:58;-1.40;99.90
23385;DHT22;11865;45.394;10.978;2024-01-30T06:15:26;-1.40;99.90
23385;DHT22;11865;45.394;10.978;2024-01-30T06:17:54;-1.50;99.90
23385;DHT22;11865;45.394;10.978;2024-01-30T06:20:21;-1.40;99.90
23385;DHT22;11865;45.394;10.978;2024-01-30T06:22:49;-1.40;99.90
23385;DHT22;11865;45.394;10.978;2024-01-30T06:25:17;-1.40;99.90
23385;DHT22;11865;45.394;10.978;2024-01-30T06:27:44;-1.60;99.90
23385;DHT22;11865;45.394;10.978;2024-01-30T06:30:12;-1.60;99.90
23385;DHT22;11865;45.394;10.978;2024-01-30T06:32:40;-1.50;99.90
23385;DHT22;11865;45.394;10.978;2024-01-30T06:35:08;-1.40;99.90
23385;DHT22;11865;45.394;10.978;2024-01-30T06:37:37;-1.60;99.90
23385;DHT22;11865;45.394;10.978;2024-01-30T06:40:05;-1.40;99.90
23385;DHT22;11865;45.394;10.978;2024-01-30T06:42:33;-1.40;99.90
23385;DHT22;11865;45.394;10.978;2024-01-30T06:45:01;-1.50;99.90
23385;DHT22;11865;45.394;10.978;2024-01-30T06:47:29;-1.50;99.90
23385;DHT22;11865;45.394;10.978;2024-01-30T06:49:58;-1.50;99.90
23385;DHT22;11865;45.394;10.978;2024-01-30T06:52:26;-1.40;99.90
23385;DHT22;11865;45.394;10.978;2024-01-30T06:54:54;-1.40;99.90
23385;DHT22;11865;45.394;10.978;2024-01-30T06:57:22;-1.50;99.90
23385;DHT22;11865;45.394;10.978;2024-01-30T06:59:49;-1.60;99.90
23385;DHT22;11865;45.394;10.978;2024-01-30T07:02:17;-1.40;99.90
23385;DHT22;11865;45.394;10.978;2024-01-30T07:04:45;-1.30;99.90
23385;DHT22;11865;45.394;10.978;2024-01-30T07:07:13;-1.30;99.90
23385;DHT22;11865;45.394;10.978;2024-01-30T07:09:43;-1.30;99.90
23385;DHT22;11865;45.394;10.978;2024-01-30T07:12:10;-1.20;99.90
23385;DHT22;11865;45.394;10.978;2024-01-30T07:14:38;-1.20;99.90
23385;DHT22;11865;45.394;10.978;2024-01-30T07:17:06;-1.20;99.90
23385;DHT22;11865;45.394;10.978;2024-01-30T07:19:34;-1.10;99.90
23385;DHT22;11865;45.394;10.978;2024-01-30T07:22:02;-1.10;99.90
23385;DHT22;11865;45.394;10.978;2024-01-30T07:24:30;-1.10;99.90
23385;DHT22;11865;45.394;10.978;2024-01-30T07:26:57;-1.00;99.90
23385;DHT22;11865;45.394;10.978;2024-01-30T07:29:25;-1.00;99.90
23385;DHT22;11865;45.394;10.978;2024-01-30T07:31:52;-0.80;99.90
23385;DHT22;11865;45.394;10.978;2024-01-30T07:34:20;-0.80;99.90
23385;DHT22;11865;45.394;10.978;2024-01-30T07:36:48;-0.70;99.90
23385;DHT22;11865;45.394;10.978;2024-01-30T07:39:16;-0.60;99.90
23385;DHT22;11865;45.394;10.978;2024-01-30T07:41:44;-0.60;99.90
23385;DHT22;11865;45.394;10.978;2024-01-30T07:44:11;-0.60;99.90
23385;DHT22;11865;45.394;10.978;2024-01-30T07:46:39;-0.60;99.90
23385;DHT22;11865;45.394;10.978;2024-01-30T07:49:06;-0.50;99.90
23385;DHT22;11865;45.394;10.978;2024-01-30T07:51:34;-0.50;99.90
23385;DHT22;11865;45.394;10.978;2024-01-30T07:54:01;-0.10;99.90
23385;DHT22;11865;45.394;10.978;2024-01-30T07:56:30;0.30;99.90
23385;DHT22;11865;45.394;10.978;2024-01-30T07:59:00;0.50;99.90
23385;DHT22;11865;45.394;10.978;2024-01-30T08:01:28;0.70;99.90
23385;DHT22;11865;45.394;10.978;2024-01-30T08:03:56;0.70;99.90
23385;DHT22;11865;45.394;10.978;2024-01-30T08:06:24;0.60;99.90
23385;DHT22;11865;45.394;10.978;2024-01-30T08:09:08;0.50;99.90
23385;DHT22;11865;45.394;10.978;2024-01-30T08:11:50;0.50;99.90
23385;DHT22;11865;45.394;10.978;2024-01-30T08:14:19;0.00;99.90
23385;DHT22;11865;45.394;10.978;2024-01-30T08:16:47;0.00;99.90
23385;DHT22;11865;45.394;10.978;2024-01-30T08:19:16;0.00;99.90
23385;DHT22;11865;45.394;10.978;2024-01-30T08:21:43;0.00;99.90
23385;DHT22;11865;45.394;10.978;2024-01-30T08:24:11;-0.20;99.90
23385;DHT22;11865;45.394;10.978;2024-01-30T08:26:40;0.00;99.90
23385;DHT22;11865;45.394;10.978;2024-01-30T08:29:08;0.10;99.90
23385;DHT22;11865;45.394;10.978;2024-01-30T08:31:36;0.20;99.90
23385;DHT22;11865;45.394;10.978;2024-01-30T08:34:04;0.10;99.90
23385;DHT22;11865;45.394;10.978;2024-01-30T08:36:32;0.10;99.90
23385;DHT22;11865;45.394;10.978;2024-01-30T08:39:00;0.10;99.90
23385;DHT22;11865;45.394;10.978;2024-01-30T08:41:32;0.50;99.90
23385;DHT22;11865;45.394;10.978;2024-01-30T08:44:00;0.50;99.90
23385;DHT22;11865;45.394;10.978;2024-01-30T08:46:28;0.40;99.90
23385;DHT22;11865;45.394;10.978;2024-01-30T08:48:55;0.30;99.90
23385;DHT22;11865;45.394;10.978;2024-01-30T08:51:23;0.20;99.90
23385;DHT22;11865;45.394;10.978;2024-01-30T08:53:51;0.20;99.90
23385;DHT22;11865;45.394;10.978;2024-01-30T08:56:19;0.30;99.90
23385;DHT22;11865;45.394;10.978;2024-01-30T08:58:47;0.40;99.90
23385;DHT22;11865;45.394;10.978;2024-01-30T09:01:15;0.40;99.90
23385;DHT22;11865;45.394;10.978;2024-01-30T09:03:43;0.50;99.90
23385;DHT22;11865;45.394;10.978;2024-01-30T09:06:13;0.50;99.90
23385;DHT22;11865;45.394;10.978;2024-01-30T09:08:40;0.70;99.90
23385;DHT22;11865;45.394;10.978;2024-01-30T09:11:09;0.60;99.90
23385;DHT22;11865;45.394;10.978;2024-01-30T09:13:38;0.50;99.90
23385;DHT22;11865;45.394;10.978;2024-01-30T09:16:09;0.60;99.90
23385;DHT22;11865;45.394;10.978;2024-01-30T09:18:37;0.70;99.90
23385;DHT22;11865;45.394;10.978;2024-01-30T09:21:05;0.60;99.90
23385;DHT22;11865;45.394;10.978;2024-01-30T09:23:32;0.60;99.90
23385;DHT22;11865;45.394;10.978;2024-01-30T09:26:00;0.80;99.90
23385;DHT22;11865;45.394;10.978;2024-01-30T09:28:29;0.70;99.90
23385;DHT22;11865;45.394;10.978;2024-01-30T09:30:56;0.80;99.90
23385;DHT22;11865;45.394;10.978;2024-01-30T09:33:25;0.80;99.90
23385;DHT22;11865;45.394;10.978;2024-01-30T09:35:52;0.50;99.90
23385;DHT22;11865;45.394;10.978;2024-01-30T09:38:20;0.50;99.90
23385;DHT22;11865;45.394;10.978;2024-01-30T09:40:53;0.50;99.90
23385;DHT22;11865;45.394;10.978;2024-01-30T09:43:23;0.60;99.90
23385;DHT22;11865;45.394;10.978;2024-01-30T09:45:54;0.80;99.90
23385;DHT22;11865;45.394;10.978;2024-01-30T09:48:23;0.90;99.90
23385;DHT22;11865;45.394;10.978;2024-01-30T09:50:51;1.00;99.90
23385;DHT22;11865;45.394;10.978;2024-01-30T09:53:20;1.10;99.90
23385;DHT22;11865;45.394;10.978;2024-01-30T09:55:50;1.10;99.90
23385;DHT22;11865;45.394;10.978;2024-01-30T09:58:18;1.00;99.90
23385;DHT22;11865;45.394;10.978;2024-01-30T10:00:45;1.20;99.90
23385;DHT22;11865;45.394;10.978;2024-01-30T10:03:13;1.10;99.90
23385;DHT22;11865;45.394;10.978;2024-01-30T10:05:50;1.20;99.90
23385;DHT22;11865;45.394;10.978;2024-01-30T10:08:20;1.30;99.90
23385;DHT22;11865;45.394;10.978;2024-01-30T10:10:48;1.10;99.90
23385;DHT22;11865;45.394;10.978;2024-01-30T10:13:17;1.40;99.90
23385;DHT22;11865;45.394;10.978;2024-01-30T10:15:45;1.60;99.90
23385;DHT22;11865;45.394;10.978;2024-01-30T10:18:13;1.50;99.90
23385;DHT22;11865;45.394;10.978;2024-01-30T10:20:40;1.60;99.90
23385;DHT22;11865;45.394;10.978;2024-01-30T10:23:08;1.80;99.90
23385;DHT22;11865;45.394;10.978;2024-01-30T10:25:37;2.00;99.90
23385;DHT22;11865;45.394;10.978;2024-01-30T10:28:06;1.80;99.90
23385;DHT22;11865;45.394;10.978;2024-01-30T10:30:33;2.00;99.90
23385;DHT22;11865;45.394;10.978;2024-01-30T10:33:02;1.90;99.90
23385;DHT22;11865;45.394;10.978;2024-01-30T10:35:30;2.00;99.90
23385;DHT22;11865;45.394;10.978;2024-01-30T10:37:57;2.10;99.90
23385;DHT22;11865;45.394;10.978;2024-01-30T10:40:29;1.90;99.90
23385;DHT22;11865;45.394;10.978;2024-01-30T10:42:59;1.70;99.90
23385;DHT22;11865;45.394;10.978;2024-01-30T10:45:32;2.10;99.90
23385;DHT22;11865;45.394;10.978;2024-01-30T10:48:01;2.10;99.90
23385;DHT22;11865;45.394;10.978;2024-01-30T10:50:33;2.10;99.90
23385;DHT22;11865;45.394;10.978;2024-01-30T10:53:09;2.20;99.90
23385;DHT22;11865;45.394;10.978;2024-01-30T10:55:38;2.10;99.90
23385;DHT22;11865;45.394;10.978;2024-01-30T10:58:07;2.40;99.90
23385;DHT22;11865;45.394;10.978;2024-01-30T11:00:35;2.90;99.90
23385;DHT22;11865;45.394;10.978;2024-01-30T11:03:03;3.00;99.90
23385;DHT22;11865;45.394;10.978;2024-01-30T11:05:33;3.10;99.90
23385;DHT22;11865;45.394;10.978;2024-01-30T11:08:11;2.60;99.90
23385;DHT22;11865;45.394;10.978;2024-01-30T11:10:48;2.50;99.90
23385;DHT22;11865;45.394;10.978;2024-01-30T11:13:19;2.50;99.90
23385;DHT22;11865;45.394;10.978;2024-01-30T11:15:48;2.40;99.90
23385;DHT22;11865;45.394;10.978;2024-01-30T11:18:23;2.30;99.90
23385;DHT22;11865;45.394;10.978;2024-01-30T11:20:51;2.50;99.90
23385;DHT22;11865;45.394;10.978;2024-01-30T11:23:22;2.70;99.90
23385;DHT22;11865;45.394;10.978;2024-01-30T11:25:52;3.00;99.90
23385;DHT22;11865;45.394;10.978;2024-01-30T11:28:23;3.20;99.90
23385;DHT22;11865;45.394;10.978;2024-01-30T11:30:51;3.30;99.90
23385;DHT22;11865;45.394;10.978;2024-01-30T11:33:30;3.20;99.90
23385;DHT22;11865;45.394;10.978;2024-01-30T11:36:01;3.10;99.90
23385;DHT22;11865;45.394;10.978;2024-01-30T11:38:34;3.30;99.90
23385;DHT22;11865;45.394;10.978;2024-01-30T11:41:02;3.40;99.90
23385;DHT22;11865;45.394;10.978;2024-01-30T11:43:30;3.40;99.90
23385;DHT22;11865;45.394;10.978;2024-01-30T11:46:00;3.50;99.90
23385;DHT22;11865;45.394;10.978;2024-01-30T11:48:28;3.70;99.90
23385;DHT22;11865;45.394;10.978;2024-01-30T11:50:55;3.80;99.90
23385;DHT22;11865;45.394;10.978;2024-01-30T11:53:23;3.80;99.90
23385;DHT22;11865;45.394;10.978;2024-01-30T11:55:51;3.90;99.90
23385;DHT22;11865;45.394;10.978;2024-01-30T11:58:18;4.00;99.90
23385;DHT22;11865;45.394;10.978;2024-01-30T12:00:56;3.90;99.90
23385;DHT22;11865;45.394;10.978;2024-01-30T12:03:24;4.20;99.90
23385;DHT22;11865;45.394;10.978;2024-01-30T12:05:56;4.20;99.90
23385;DHT22;11865;45.394;10.978;2024-01-30T12:08:26;4.30;99.90
23385;DHT22;11865;45.394;10.978;2024-01-30T12:10:56;4.50;99.90
23385;DHT22;11865;45.394;10.978;2024-01-30T12:13:26;4.50;99.90
23385;DHT22;11865;45.394;10.978;2024-01-30T12:15:59;4.50;99.90
23385;DHT22;11865;45.394;10.978;2024-01-30T12:18:27;4.40;99.90
23385;DHT22;11865;45.394;10.978;2024-01-30T12:20:58;4.60;99.90
23385;DHT22;11865;45.394;10.978;2024-01-30T12:23:28;4.70;99.90
23385;DHT22;11865;45.394;10.978;2024-01-30T12:25:56;4.80;99.90
23385;DHT22;11865;45.394;10.978;2024-01-30T12:28:26;4.90;99.90
23385;DHT22;11865;45.394;10.978;2024-01-30T12:30:56;4.90;99.90
23385;DHT22;11865;45.394;10.978;2024-01-30T12:33:31;5.10;99.90
23385;DHT22;11865;45.394;10.978;2024-01-30T12:36:05;5.10;99.90
23385;DHT22;11865;45.394;10.978;2024-01-30T12:38:34;5.30;99.90
23385;DHT22;11865;45.394;10.978;2024-01-30T12:41:02;5.40;99.90
23385;DHT22;11865;45.394;10.978;2024-01-30T12:43:29;5.40;99.90
23385;DHT22;11865;45.394;10.978;2024-01-30T12:46:05;5.50;99.90
23385;DHT22;11865;45.394;10.978;2024-01-30T12:48:33;5.70;99.90
23385;DHT22;11865;45.394;10.978;2024-01-30T12:51:01;5.70;99.90
23385;DHT22;11865;45.394;10.978;2024-01-30T12:53:29;5.70;99.90
23385;DHT22;11865;45.394;10.978;2024-01-30T12:55:56;5.70;99.90
23385;DHT22;11865;45.394;10.978;2024-01-30T12:58:25;5.80;99.90
23385;DHT22;11865;45.394;10.978;2024-01-30T13:00:53;6.00;99.90
23385;DHT22;11865;45.394;10.978;2024-01-30T13:03:22;6.10;99.90
23385;DHT22;11865;45.394;10.978;2024-01-30T13:05:49;6.10;99.90
23385;DHT22;11865;45.394;10.978;2024-01-30T13:08:17;6.30;99.90
23385;DHT22;11865;45.394;10.978;2024-01-30T13:10:45;6.40;99.90
23385;DHT22;11865;45.394;10.978;2024-01-30T13:13:16;6.40;99.90
23385;DHT22;11865;45.394;10.978;2024-01-30T13:15:48;6.50;99.90
23385;DHT22;11865;45.394;10.978;2024-01-30T13:18:16;6.60;99.90
23385;DHT22;11865;45.394;10.978;2024-01-30T13:20:43;6.70;99.90
23385;DHT22;11865;45.394;10.978;2024-01-30T13:23:11;6.70;99.90
23385;DHT22;11865;45.394;10.978;2024-01-30T13:25:39;6.80;99.90
23385;DHT22;11865;45.394;10.978;2024-01-30T13:28:06;6.80;99.90
23385;DHT22;11865;45.394;10.978;2024-01-30T13:30:34;6.90;99.90
23385;DHT22;11865;45.394;10.978;2024-01-30T13:33:01;6.90;99.90
23385;DHT22;11865;45.394;10.978;2024-01-30T13:35:31;7.00;99.90
23385;DHT22;11865;45.394;10.978;2024-01-30T13:37:58;7.00;99.90
23385;DHT22;11865;45.394;10.978;2024-01-30T13:40:26;7.00;99.90
23385;DHT22;11865;45.394;10.978;2024-01-30T13:42:54;7.10;99.90
23385;DHT22;11865;45.394;10.978;2024-01-30T13:45:22;7.20;99.90
23385;DHT22;11865;45.394;10.978;2024-01-30T13:47:50;7.10;99.90
23385;DHT22;11865;45.394;10.978;2024-01-30T13:50:18;7.20;99.90
23385;DHT22;11865;45.394;10.978;2024-01-30T13:52:46;7.20;99.90
23385;DHT22;11865;45.394;10.978;2024-01-30T13:55:14;7.30;99.90
23385;DHT22;11865;45.394;10.978;2024-01-30T13:57:41;7.30;99.90
23385;DHT22;11865;45.394;10.978;2024-01-30T14:00:10;7.40;99.90
23385;DHT22;11865;45.394;10.978;2024-01-30T14:02:42;7.40;99.90
23385;DHT22;11865;45.394;10.978;2024-01-30T14:05:09;7.40;99.90
23385;DHT22;11865;45.394;10.978;2024-01-30T14:07:38;7.40;99.90
23385;DHT22;11865;45.394;10.978;2024-01-30T14:10:08;7.50;99.90
23385;DHT22;11865;45.394;10.978;2024-01-30T14:12:42;7.40;99.90
23385;DHT22;11865;45.394;10.978;2024-01-30T14:15:11;7.30;99.90
23385;DHT22;11865;45.394;10.978;2024-01-30T14:17:54;7.30;99.90
23385;DHT22;11865;45.394;10.978;2024-01-30T14:20:22;7.30;99.90
23385;DHT22;11865;45.394;10.978;2024-01-30T14:22:50;7.30;99.90
23385;DHT22;11865;45.394;10.978;2024-01-30T14:25:20;7.20;99.90
23385;DHT22;11865;45.394;10.978;2024-01-30T14:27:48;7.20;99.90
23385;DHT22;11865;45.394;10.978;2024-01-30T14:30:17;7.30;99.90
23385;DHT22;11865;45.394;10.978;2024-01-30T14:32:44;7.40;99.90
23385;DHT22;11865;45.394;10.978;2024-01-30T14:35:12;7.40;99.90
23385;DHT22;11865;45.394;10.978;2024-01-30T14:37:40;7.40;99.90
23385;DHT22;11865;45.394;10.978;2024-01-30T14:40:08;7.50;99.90
23385;DHT22;11865;45.394;10.978;2024-01-30T14:42:36;7.50;99.90
23385;DHT22;11865;45.394;10.978;2024-01-30T14:45:06;7.50;99.90
23385;DHT22;11865;45.394;10.978;2024-01-30T14:47:34;7.50;99.90
23385;DHT22;11865;45.394;10.978;2024-01-30T14:50:05;7.50;99.90
23385;DHT22;11865;45.394;10.978;2024-01-30T14:52:36;7.40;99.90
23385;DHT22;11865;45.394;10.978;2024-01-30T14:55:05;7.50;99.90
23385;DHT22;11865;45.394;10.978;2024-01-30T14:57:33;7.40;99.90
23385;DHT22;11865;45.394;10.978;2024-01-30T15:00:03;7.40;99.90
23385;DHT22;11865;45.394;10.978;2024-01-30T15:02:31;7.40;99.90
23385;DHT22;11865;45.394;10.978;2024-01-30T15:04:58;7.40;99.90
23385;DHT22;11865;45.394;10.978;2024-01-30T15:07:27;7.30;99.90
23385;DHT22;11865;45.394;10.978;2024-01-30T15:10:07;7.30;99.90
23385;DHT22;11865;45.394;10.978;2024-01-30T15:12:36;7.30;99.90
23385;DHT22;11865;45.394;10.978;2024-01-30T15:15:06;7.30;99.90
23385;DHT22;11865;45.394;10.978;2024-01-30T15:17:35;7.30;99.90
23385;DHT22;11865;45.394;10.978;2024-01-30T15:20:03;7.20;99.90
23385;DHT22;11865;45.394;10.978;2024-01-30T15:22:31;7.20;99.90
23385;DHT22;11865;45.394;10.978;2024-01-30T15:24:59;7.10;99.90
23385;DHT22;11865;45.394;10.978;2024-01-30T15:27:28;7.00;99.90
23385;DHT22;11865;45.394;10.978;2024-01-30T15:29:57;6.80;99.90